Latest Weather Observations for Low Isles

IDQ60801

Issued at 6:42 am EST Wednesday 8 April 2020 (issued every 10 minutes, with the page automatically refreshed every 10 minutes)

About weather observations | Map of weather stations | Latest weather observations for QLD | Other Formats
Station Details ID: 031037 Name: LOW ISLES LIGHTHOUSE Lat: -16.38 Lon: 145.56 Height: 2.9 m
Data from the previous 72 hours. | See also: Recent months at Low Isles
Date/Time
EST
Temp
°C
App
Temp
°C
Dew
Point
°C
Rel
Hum
%
Delta-T
°C
Wind Press
QNH
hPa
Press
MSL
hPa
Rain since
9am
mm
Dir  Spd
km/h
Gust
km/h
Spd
kts
Gust
kts
08/06:30am 26.1 24.9 20.9 73 3.4 ESE 28 35 15 19 1012.3 1012.2 16.6
08/06:00am 26.0 25.4 21.2 75 3.2 ESE 26 32 14 17 1012.0 1011.9 16.6
08/05:30am 25.9 24.8 21.1 75 3.2 ESE 28 35 15 19 1011.7 1011.6 16.6
08/05:00am 25.7 24.6 21.1 76 3.0 ESE 28 37 15 20 1011.5 1011.4 16.6
08/04:30am 25.6 24.5 21.1 76 3.0 E 28 35 15 19 1011.3 1011.2 16.6
08/04:00am 25.5 24.8 21.0 76 3.0 E 26 35 14 19 1011.4 1011.3 16.6
08/03:30am 25.4 24.7 21.1 77 2.8 E 26 35 14 19 1011.4 1011.3 16.6
08/03:00am 25.2 24.7 21.5 80 2.5 ESE 26 32 14 17 1011.4 1011.3 16.6
08/02:30am 24.8 24.3 21.5 82 2.2 E 26 32 14 17 1011.7 1011.6 16.6
08/02:00am 24.5 23.9 22.0 86 1.7 E 28 35 15 19 1011.7 1011.6 16.6
08/01:30am 24.5 24.8 22.2 87 1.5 SE 24 32 13 17 1011.9 1011.8 16.4
08/01:00am 25.6 26.3 22.3 82 2.2 E 22 30 12 16 1012.2 1012.1 14.2
08/12:30am 26.3 28.3 23.0 82 2.2 SE 17 24 9 13 1012.4 1012.3 14.2
08/12:00am 25.9 27.9 23.0 84 2.0 SSE 17 20 9 11 1012.7 1012.6 14.2
 
Date/Time
EST
Temp
°C
App
Temp
°C
Dew
Point
°C
Rel
Hum
%
Delta-T
°C
Wind Press
QNH
hPa
Press
MSL
hPa
Rain since
9am
mm
Dir  Spd
km/h
Gust
km/h
Spd
kts
Gust
kts
07/11:30pm 24.7 27.3 22.6 88 1.4 SE 13 17 7 9 1012.9 1012.8 14.0
07/11:00pm 24.3 25.3 22.2 88 1.4 ESE 20 30 11 16 1013.2 1013.1 14.0
07/10:40pm 25.6 25.8 22.1 81 2.3 SE 24 46 13 25 1013.2 1013.1 13.4
07/10:30pm 25.8 27.6 22.5 82 2.2 SE 17 22 9 12 1013.1 1013.0 13.4
07/10:00pm 26.1 26.9 22.4 80 2.5 ESE 22 35 12 19 1013.4 1013.3 12.8
07/09:30pm 27.1 27.6 22.7 77 3.0 SE 24 26 13 14 1013.1 1013.0 12.6
07/09:00pm 27.1 27.7 22.1 74 3.4 SE 22 28 12 15 1012.9 1012.8 12.6
07/08:30pm 27.2 27.2 22.4 75 3.2 SE 26 32 14 17 1012.7 1012.6 12.6
07/08:00pm 27.3 26.6 21.8 72 3.7 SE 28 32 15 17 1012.4 1012.3 12.6
07/07:30pm 27.3 26.7 22.7 76 3.1 SE 30 33 16 18 1012.1 1012.0 12.6
07/07:00pm 27.0 26.6 22.4 76 3.1 SE 28 35 15 19 1011.7 1011.6 12.6
07/06:30pm 27.2 27.8 22.8 77 3.0 SE 24 28 13 15 1011.5 1011.4 12.6
07/06:00pm 26.9 27.4 21.9 74 3.3 ESE 22 28 12 15 1011.4 1011.3 12.6
07/05:30pm 27.2 27.7 22.6 76 3.1 SE 24 30 13 16 1011.4 1011.3 12.6
07/05:00pm 27.3 27.6 22.3 74 3.4 SE 24 28 13 15 1011.2 1011.1 12.6
07/04:30pm 27.5 27.5 22.4 73 3.4 SE 26 32 14 17 1011.1 1011.0 12.6
07/04:00pm 27.5 27.5 23.1 77 3.0 SE 28 33 15 18 1011.0 1010.9 12.6
07/03:30pm 27.4 27.5 23.2 78 2.9 SE 28 32 15 17 1011.1 1011.0 12.6
07/03:00pm 27.7 29.2 23.1 76 3.1 SE 20 24 11 13 1011.1 1011.0 12.6
07/02:30pm 27.4 29.2 23.2 78 2.9 SE 19 20 10 11 1011.2 1011.1 12.6
07/02:00pm 26.9 28.7 23.2 80 2.5 SSE 19 26 10 14 1011.3 1011.2 12.6
07/01:30pm 26.4 27.1 22.9 81 2.4 SSE 24 30 13 16 1011.6 1011.5 12.6
07/01:00pm 25.7 27.2 23.0 85 1.8 S 20 24 11 13 1012.0 1011.9 12.6
07/12:30pm 24.9 26.2 22.4 86 1.7 SSE 19 22 10 12 1012.3 1012.2 12.6
07/12:00pm 24.1 23.9 22.7 92 0.9 ESE 28 33 15 18 1012.9 1012.8 12.4
07/11:30am 25.3 24.8 23.5 90 1.2 SSE 32 37 17 20 1013.3 1013.2 8.2
07/11:00am 25.3 26.5 23.9 92 1.0 SSE 24 26 13 14 1013.5 1013.4 7.8
07/10:30am 24.9 25.3 23.7 93 0.8 SSE 28 33 15 18 1013.6 1013.5 7.8
07/10:00am 24.8 26.0 23.9 95 0.6 SSE 24 32 13 17 1013.8 1013.7 7.2
07/09:30am 24.9 27.3 23.7 93 0.8 ESE 17 28 9 15 1013.6 1013.5 5.2
07/09:00am 25.5 27.5 23.6 89 1.3 SSW 19 20 10 11 1013.2 1013.1 59.2
07/08:30am 25.8 26.3 24.0 90 1.2 SSE 28 37 15 20 1013.0 1012.9 59.2
07/08:26am 26.1 28.1 24.5 91 1.1 SSE 22 37 12 20 1012.9 1012.8 59.2
07/08:00am 25.2 28.0 24.3 95 0.6 S 17 19 9 10 1012.7 1012.6 59.2
07/07:30am 24.8 28.1 24.5 98 0.2 SSE 15 28 8 15 1012.4 1012.3 58.8
07/07:00am 24.4 27.9 24.2 99 0.1 SE 13 22 7 12 1011.8 1011.7 58.2
07/06:30am 24.2 26.0 23.5 96 0.5 ENE 20 39 11 21 1011.6 1011.5 25.6
07/06:00am 24.0 27.2 23.0 94 0.7 ESE 11 17 6 9 1011.3 1011.2 22.4
07/05:30am 24.1 27.0 23.1 94 0.7 ENE 13 19 7 10 1011.0 1010.9 18.6
07/05:00am 24.6 27.2 23.9 96 0.5 SE 17 20 9 11 1011.0 1010.9 17.8
07/04:30am 24.4 28.2 23.5 95 0.6 SE 9 13 5 7 1010.5 1010.4 17.0
07/04:00am 24.6 24.8 23.4 93 0.8 ESE 28 41 15 22 1010.6 1010.5 13.6
07/03:30am 25.3 27.5 23.9 92 1.0 SE 19 24 10 13 1010.2 1010.1 8.4
07/03:00am 24.8 27.6 23.6 93 0.8 SSE 15 17 8 9 1010.3 1010.2 8.4
07/02:30am 25.0 28.4 23.4 91 1.1 SE 11 17 6 9 1011.0 1010.9 7.8
07/02:00am 25.7 28.9 23.7 89 1.4 SSE 13 17 7 9 1010.9 1010.8 2.6
07/01:30am 25.8 27.7 23.7 88 1.4 SSE 20 26 11 14 1011.3 1011.2 1.6
07/01:00am 26.7 28.3 23.2 81 2.4 SE 20 28 11 15 1011.7 1011.6 1.0
07/12:30am 26.4 29.8 23.3 83 2.1 SSE 11 13 6 7 1012.0 1011.9 1.0
07/12:00am 26.4 28.6 23.9 86 1.7 SE 19 20 10 11 1012.4 1012.3 1.0
 
Date/Time
EST
Temp
°C
App
Temp
°C
Dew
Point
°C
Rel
Hum
%
Delta-T
°C
Wind Press
QNH
hPa
Press
MSL
hPa
Rain since
9am
mm
Dir  Spd
km/h
Gust
km/h
Spd
kts
Gust
kts
06/11:30pm 25.3 28.0 22.8 86 1.7 ESE 13 15 7 8 1012.5 1012.4 1.0
06/11:00pm 26.8 28.9 23.1 80 2.5 ESE 17 22 9 12 1012.7 1012.6 0.8
06/10:30pm 27.6 29.9 23.4 78 2.9 ESE 17 20 9 11 1012.7 1012.6 0.0
06/10:00pm 27.7 29.5 23.3 77 3.0 SE 19 20 10 11 1013.0 1012.9 0.0
06/09:30pm 27.6 29.3 23.0 76 3.1 ESE 19 22 10 12 1012.6 1012.5 0.0
06/09:00pm 27.6 29.2 23.2 77 3.0 ESE 20 26 11 14 1012.6 1012.5 0.0
06/08:30pm 27.7 29.5 23.5 78 2.9 SE 20 24 11 13 1012.4 1012.3 0.0
06/08:00pm 27.7 29.9 23.3 77 3.0 ESE 17 22 9 12 1012.1 1012.0 0.0
06/07:30pm 27.7 29.5 23.3 77 3.0 ESE 19 20 10 11 1011.9 1011.8 0.0
06/07:00pm 27.6 29.1 23.0 76 3.1 ESE 20 26 11 14 1011.8 1011.7 0.0
06/06:30pm 27.7 29.2 23.1 76 3.1 ESE 20 26 11 14 1011.6 1011.5 0.0
06/06:00pm 27.9 29.0 23.1 75 3.3 ESE 22 26 12 14 1011.4 1011.3 0.0
06/05:30pm 28.2 29.3 23.1 74 3.5 ESE 22 30 12 16 1011.2 1011.1 0.0
06/05:00pm 28.6 29.1 22.6 70 4.1 E 24 32 13 17 1011.0 1010.9 0.0
06/04:30pm 29.6 30.1 23.3 69 4.3 E 26 32 14 17 1010.8 1010.7 0.0
06/04:00pm 30.0 30.8 23.2 67 4.7 E 24 32 13 17 1010.7 1010.6 0.0
06/03:30pm 30.3 32.1 23.5 67 4.7 E 20 30 11 16 1010.6 1010.5 0.0
06/03:00pm 30.6 32.0 23.5 66 4.9 E 22 30 12 16 1010.7 1010.6 0.0
06/02:30pm 30.1 31.7 23.3 67 4.7 ESE 20 28 11 15 1010.8 1010.7 0.0
06/02:00pm 29.5 31.1 23.2 69 4.3 ESE 20 28 11 15 1011.1 1011.0 0.0
06/01:30pm 29.2 30.8 23.2 70 4.1 ESE 20 26 11 14 1011.5 1011.4 0.0
06/01:00pm 28.9 30.4 23.1 71 4.0 SE 20 26 11 14 1012.0 1011.9 0.0
06/12:30pm 29.1 31.3 24.0 74 3.5 SE 19 22 10 12 1012.5 1012.4 0.0
06/12:00pm 28.9 30.5 23.3 72 3.8 SE 20 24 11 13 1013.0 1012.9 0.0
06/11:30am 28.9 30.7 23.6 73 3.6 SE 20 24 11 13 1013.5 1013.4 0.0
06/11:00am 28.6 30.5 23.7 75 3.4 SE 20 24 11 13 1013.8 1013.7 0.0
06/10:30am 28.4 30.6 24.2 78 2.9 SE 20 26 11 14 1014.0 1013.9 0.0
06/10:00am 27.8 29.0 23.8 79 2.8 SE 24 28 13 15 1013.9 1013.8 0.0
06/09:30am 27.7 29.6 23.7 79 2.7 SE 20 24 11 13 1013.8 1013.7 0.0
06/09:00am 27.4 29.2 23.6 80 2.6 SE 20 24 11 13 1013.6 1013.5 0.0
06/08:30am 27.5 30.0 24.4 83 2.1 SE 19 20 10 11 1013.4 1013.3 0.0
06/08:00am 27.5 29.2 23.1 77 3.0 ESE 19 22 10 12 1013.0 1012.9 0.0
06/07:30am 27.2 28.8 22.8 77 3.0 ESE 19 22 10 12 1012.6 1012.5 0.0
06/07:00am 27.2 29.6 23.0 78 2.9 ESE 15 19 8 10 1012.4 1012.3 0.0
06/06:30am 26.5 29.3 23.0 81 2.4 ESE 13 17 7 9 1012.1 1012.0 0.0
06/06:00am 26.7 28.7 23.0 80 2.5 ESE 17 19 9 10 1011.9 1011.8 0.0
06/05:30am 26.6 29.0 22.9 80 2.5 ESE 15 20 8 11 1011.4 1011.3 0.0
06/05:00am 26.5 28.7 22.6 79 2.6 E 15 19 8 10 1011.3 1011.2 0.0
06/04:30am 26.6 28.7 22.4 78 2.8 E 15 20 8 11 1011.3 1011.2 0.0
06/04:00am 26.7 28.1 22.5 78 2.8 E 19 22 10 12 1011.0 1010.9 0.0
06/03:30am 26.6 29.0 22.9 80 2.5 E 15 17 8 9 1011.2 1011.1 0.0
06/03:00am 26.4 29.3 22.5 79 2.6 E 11 13 6 7 1011.4 1011.3 0.0
06/02:30am 26.5 29.1 22.6 79 2.6 E 13 15 7 8 1011.3 1011.2 0.0
06/02:00am 26.7 29.1 23.0 80 2.5 E 15 19 8 10 1011.5 1011.4 0.0
06/01:30am 26.8 29.4 23.3 81 2.4 E 15 20 8 11 1011.6 1011.5 0.0
06/01:00am 26.9 29.1 23.2 80 2.5 E 17 22 9 12 1011.9 1011.8 0.0
06/12:30am 27.0 29.8 23.0 79 2.7 E 13 17 7 9 1012.1 1012.0 0.0
06/12:00am 27.3 29.9 23.3 79 2.7 ESE 15 19 8 10 1012.4 1012.3 0.0
 
Date/Time
EST
Temp
°C
App
Temp
°C
Dew
Point
°C
Rel
Hum
%
Delta-T
°C
Wind Press
QNH
hPa
Press
MSL
hPa
Rain since
9am
mm
Dir  Spd
km/h
Gust
km/h
Spd
kts
Gust
kts
05/11:30pm 27.3 29.9 23.3 79 2.7 E 15 20 8 11 1012.5 1012.4 0.0
05/11:00pm 27.3 30.0 23.5 80 2.6 E 15 22 8 12 1012.7 1012.6 0.0
05/10:30pm 27.3 29.5 23.3 79 2.7 E 17 20 9 11 1012.6 1012.5 0.0
05/10:00pm 27.4 29.7 23.4 79 2.7 ESE 17 20 9 11 1012.8 1012.7 0.0
05/09:30pm 27.2 29.4 23.2 79 2.7 E 17 20 9 11 1012.7 1012.6 0.0
05/09:00pm 27.5 30.3 23.7 80 2.6 E 15 19 8 10 1012.6 1012.5 0.0
05/08:30pm 27.7 31.3 24.3 82 2.4 ESE 13 17 7 9 1012.3 1012.2 0.0
05/08:00pm 27.3 30.4 23.5 80 2.6 ESE 13 15 7 8 1011.9 1011.8 0.0
05/07:30pm 27.6 31.0 24.0 81 2.5 ESE 13 15 7 8 1011.5 1011.4 0.0
05/07:00pm 27.8 31.2 24.0 80 2.6 ESE 13 19 7 10 1011.2 1011.1 0.0
05/06:30pm 28.0 31.2 24.4 81 2.5 ESE 15 17 8 9 1010.6 1010.5 0.0
05/06:00pm 28.1 31.2 24.1 79 2.8 ESE 15 17 8 9 1010.1 1010.0 0.0
05/05:30pm 28.2 31.1 23.8 77 3.0 ESE 15 19 8 10 1009.7 1009.6 0.0
05/05:00pm 28.6 31.0 23.7 75 3.4 ESE 17 20 9 11 1009.6 1009.5 0.0
05/04:30pm 29.3 32.5 23.7 72 3.9 ESE 13 19 7 10 1009.3 1009.2 0.0
05/04:00pm 30.8 33.9 24.2 68 4.6 ENE 15 17 8 9 1009.0 1008.9 0.0
05/03:30pm 31.7 35.4 24.6 66 5.0 NE 13 15 7 8 1008.9 1008.8 0.0
05/03:00pm 31.9 36.0 24.5 65 5.2 NE 11 15 6 8 1009.0 1008.9 0.0
05/02:30pm 31.7 35.3 24.3 65 5.2 NE 13 17 7 9 1009.2 1009.1 0.0
05/02:00pm 31.6 35.4 24.7 67 4.9 NE 13 17 7 9 1009.6 1009.5 0.0
05/01:30pm 31.7 35.1 24.0 63 5.4 ENE 13 17 7 9 1010.0 1009.9 0.0
05/01:00pm 31.7 35.0 23.8 63 5.5 NE 13 15 7 8 1010.3 1010.2 0.0
05/12:30pm 31.8 34.9 24.1 63 5.4 ENE 15 19 8 10 1010.6 1010.5 0.0
05/12:00pm 31.7 35.4 24.6 66 5.0 NE 13 15 7 8 1011.0 1010.9 0.0
05/11:30am 31.1 34.3 23.7 64 5.1 ENE 13 17 7 9 1011.5 1011.4 0.0
05/11:00am 30.3 34.1 24.0 69 4.4 NE 11 15 6 8 1011.8 1011.7 0.0
05/10:30am 29.9 33.5 23.8 70 4.2 NE 11 13 6 7 1012.0 1011.9 0.0
05/10:00am 29.4 33.6 24.7 76 3.3 ENE 11 15 6 8 1012.3 1012.2 0.0
05/09:30am 28.0 32.7 24.0 79 2.8 SSE 6 9 3 5 1012.3 1012.2 0.0
05/09:00am 27.4 33.0 23.6 80 2.6 CALM 0 0 0 0 1012.1 1012.0 0.0
05/08:30am 27.1 32.2 24.0 83 2.1 SW 4 7 2 4 1011.8 1011.7 0.0
05/08:00am 27.0 30.5 23.5 81 2.4 SW 11 13 6 7 1011.5 1011.4 0.0
05/07:30am 26.9 29.7 23.6 82 2.3 SW 15 17 8 9 1011.3 1011.2 0.0
05/07:00am 26.8 29.5 23.5 82 2.3 WSW 15 17 8 9 1011.1 1011.0 0.0

Other formats

Comma delimited format used in spreadsheet applications
http://www.bom.gov.au/fwo/IDQ60801/IDQ60801.94285.axf

JavaScript Object Notation format (JSON) in row-major order
http://www.bom.gov.au/fwo/IDQ60801/IDQ60801.94285.json

Data quality

Most of these data are generated automatically and are frequently updated. Quality checks on data are not normally performed. It is possible for incorrect values to appear. Refer to information at About Latest Weather Observations and please check the disclaimer before using these data.